Time;durP1;ratioP1;P1;durP2;ratioP2;P2;SDS_P1;SDS_P2;PMS_P1;PMS_P2;Temp;Humidity;BMP_temperature;BMP_pressure;BME280_temperature;BME280_humidity;BME280_pressure;Samples;Min_cycle;Max_cycle;Signal;HPM_P1;HPM_P2
2023/06/15 00:01:04;;;;;;;;;28.67;28.00;;;;;;;;5057942;28;45278;-74
2023/06/15 00:03:29;;;;;;;;;32.00;29.67;;;;;;;;5059279;28;45362;-74
2023/06/15 00:05:54;;;;;;;;;36.00;32.00;;;;;;;;5057390;28;47369;-74
2023/06/15 00:08:19;;;;;;;;;39.33;33.67;;;;;;;;5057990;28;45220;-74
2023/06/15 00:10:45;;;;;;;;;36.00;30.67;;;;;;;;5059384;28;45376;-74
2023/06/15 00:13:10;;;;;;;;;35.33;31.33;;;;;;;;5057908;28;45258;-74
2023/06/15 00:15:36;;;;;;;;;33.33;30.33;;;;;;;;5057559;28;45523;-74
2023/06/15 00:18:01;;;;;;;;;34.33;30.33;;;;;;;;5059088;28;45153;-74
2023/06/15 00:20:28;;;;;;;;;36.00;30.67;;;;;;;;5058795;28;45660;-74
2023/06/15 00:22:55;;;;;;;;;37.67;32.67;;;;;;;;5057710;28;46467;-74
2023/06/15 00:25:20;;;;;;;;;39.67;34.00;;;;;;;;5057425;28;46290;-74
2023/06/15 00:27:45;;;;;;;;;35.00;31.67;;;;;;;;5058799;28;45335;-74
2023/06/15 00:30:12;;;;;;;;;37.33;31.33;;;;;;;;5059779;28;45434;-74
2023/06/15 00:32:37;;;;;;;;;37.33;32.00;;;;;;;;5061059;28;47755;-74
2023/06/15 00:35:03;;;;;;;;;38.67;32.33;;;;;;;;5059680;28;47325;-74
2023/06/15 00:37:28;;;;;;;;;39.00;33.00;;;;;;;;5060672;28;45397;-74
2023/06/15 00:39:54;;;;;;;;;35.67;32.00;;;;;;;;5061044;28;45421;-74
2023/06/15 00:42:19;;;;;;;;;37.00;32.67;;;;;;;;5060675;28;45524;-74
2023/06/15 00:44:44;;;;;;;;;36.67;32.67;;;;;;;;5060749;28;47049;-74
2023/06/15 00:47:10;;;;;;;;;34.33;31.00;;;;;;;;5060897;28;45260;-74
2023/06/15 00:49:36;;;;;;;;;40.00;34.00;;;;;;;;5060899;28;45425;-74
2023/06/15 00:52:01;;;;;;;;;38.00;33.33;;;;;;;;5060072;28;46280;-74
2023/06/15 00:54:27;;;;;;;;;32.33;30.33;;;;;;;;5061975;28;45291;-74
2023/06/15 00:56:53;;;;;;;;;36.33;31.67;;;;;;;;5061954;28;45495;-74
2023/06/15 00:59:19;;;;;;;;;36.33;31.33;;;;;;;;5060888;28;45270;-74
2023/06/15 01:01:44;;;;;;;;;34.33;31.67;;;;;;;;5060468;28;47286;-74
2023/06/15 01:04:10;;;;;;;;;39.33;33.33;;;;;;;;5061709;28;45628;-74
2023/06/15 01:06:41;;;;;;;;;35.00;31.67;;;;;;;;5059734;28;45378;-74
2023/06/15 01:09:08;;;;;;;;;36.67;33.00;;;;;;;;5060874;28;45310;-74
2023/06/15 01:11:33;;;;;;;;;34.67;31.33;;;;;;;;5061820;28;45438;-74
2023/06/15 01:13:59;;;;;;;;;33.67;29.67;;;;;;;;5060112;28;47582;-74
2023/06/15 01:16:27;;;;;;;;;38.33;33.33;;;;;;;;5060463;28;45304;-73
2023/06/15 01:18:56;;;;;;;;;40.33;33.67;;;;;;;;5061687;28;45327;-74
2023/06/15 01:21:21;;;;;;;;;36.67;32.67;;;;;;;;5060094;28;46098;-74
2023/06/15 01:23:58;;;;;;;;;36.00;31.67;;;;;;;;5061537;28;45300;-74
2023/06/15 01:26:24;;;;;;;;;39.00;33.00;;;;;;;;5060123;28;45378;-73
2023/06/15 01:28:49;;;;;;;;;34.33;31.67;;;;;;;;5060084;28;45341;-74
2023/06/15 01:31:15;;;;;;;;;37.33;33.00;;;;;;;;5061313;28;45458;-74
2023/06/15 01:33:44;;;;;;;;;35.00;32.00;;;;;;;;5061309;28;46112;-74
2023/06/15 01:36:09;;;;;;;;;35.67;32.00;;;;;;;;5059990;28;46058;-74
2023/06/15 01:38:35;;;;;;;;;36.33;31.67;;;;;;;;5061246;28;45822;-74
2023/06/15 01:41:00;;;;;;;;;35.67;31.67;;;;;;;;5060974;28;45388;-74
2023/06/15 01:43:28;;;;;;;;;37.00;33.67;;;;;;;;5061303;28;45689;-74
2023/06/15 01:45:54;;;;;;;;;34.00;30.67;;;;;;;;5059930;28;46078;-74
2023/06/15 01:48:20;;;;;;;;;33.00;29.33;;;;;;;;5059989;28;45358;-74
2023/06/15 01:50:45;;;;;;;;;33.33;30.00;;;;;;;;5061005;28;45370;-74
2023/06/15 01:53:10;;;;;;;;;30.67;28.33;;;;;;;;5061043;28;45552;-74
2023/06/15 01:55:36;;;;;;;;;29.00;27.67;;;;;;;;5061168;28;45337;-74
2023/06/15 01:58:01;;;;;;;;;30.33;29.33;;;;;;;;5061144;28;45441;-74
2023/06/15 02:00:27;;;;;;;;;29.67;28.00;;;;;;;;5059620;28;45586;-74
2023/06/15 02:02:53;;;;;;;;;33.67;29.00;;;;;;;;5059751;28;47756;-74
2023/06/15 02:05:18;;;;;;;;;33.67;29.67;;;;;;;;5059293;28;46396;-74
2023/06/15 02:07:44;;;;;;;;;30.00;29.00;;;;;;;;5061047;28;45442;-74
2023/06/15 02:10:09;;;;;;;;;32.67;29.67;;;;;;;;5061026;28;45336;-74
2023/06/15 02:12:34;;;;;;;;;36.00;31.00;;;;;;;;5059467;28;47634;-74
2023/06/15 02:15:02;;;;;;;;;34.67;31.00;;;;;;;;5059497;28;45311;-74
2023/06/15 02:17:31;;;;;;;;;33.00;30.00;;;;;;;;5059562;28;45320;-74
2023/06/15 02:19:57;;;;;;;;;30.33;29.33;;;;;;;;5060565;28;45442;-74
2023/06/15 02:22:23;;;;;;;;;30.67;28.00;;;;;;;;5059211;28;47277;-74
2023/06/15 02:24:48;;;;;;;;;31.00;29.67;;;;;;;;5060692;28;45306;-74
2023/06/15 02:27:14;;;;;;;;;32.33;30.33;;;;;;;;5059524;28;45502;-74
2023/06/15 02:29:39;;;;;;;;;33.67;29.67;;;;;;;;5059114;28;46040;-74
2023/06/15 02:32:04;;;;;;;;;30.33;29.33;;;;;;;;5060485;28;45220;-74
2023/06/15 02:34:30;;;;;;;;;32.33;28.67;;;;;;;;5060535;28;45279;-74
2023/06/15 02:36:55;;;;;;;;;32.67;30.00;;;;;;;;5060175;28;45700;-74
2023/06/15 02:39:21;;;;;;;;;31.00;29.33;;;;;;;;5058867;28;45251;-74
2023/06/15 02:41:46;;;;;;;;;32.67;29.67;;;;;;;;5060094;28;46040;-74
2023/06/15 02:44:11;;;;;;;;;32.33;29.67;;;;;;;;5060432;28;45145;-74
2023/06/15 02:46:37;;;;;;;;;35.00;30.33;;;;;;;;5060606;28;45201;-74
2023/06/15 02:49:02;;;;;;;;;33.00;30.00;;;;;;;;5060163;28;45366;-74
2023/06/15 02:51:27;;;;;;;;;34.00;31.33;;;;;;;;5060126;28;45966;-74
2023/06/15 02:53:52;;;;;;;;;30.00;29.00;;;;;;;;5058144;28;45328;-74
2023/06/15 02:56:18;;;;;;;;;31.00;29.33;;;;;;;;5060415;28;45385;-74
2023/06/15 02:58:47;;;;;;;;;31.67;29.67;;;;;;;;5060125;28;45504;-74
2023/06/15 03:01:15;;;;;;;;;32.67;30.00;;;;;;;;5059926;28;45304;-74
2023/06/15 03:03:40;;;;;;;;;33.67;30.67;;;;;;;;5060145;28;45219;-74
2023/06/15 03:06:08;;;;;;;;;38.00;33.00;;;;;;;;5059889;28;45153;-74
2023/06/15 03:08:33;;;;;;;;;38.33;33.33;;;;;;;;5059957;28;45319;-74
2023/06/15 03:10:58;;;;;;;;;38.00;31.33;;;;;;;;5059898;28;45242;-75
2023/06/15 03:13:24;;;;;;;;;35.00;31.33;;;;;;;;5060108;28;45442;-74
2023/06/15 03:15:49;;;;;;;;;36.33;31.67;;;;;;;;5059745;28;45200;-74
2023/06/15 03:18:15;;;;;;;;;36.33;33.00;;;;;;;;5058873;28;45457;-74
2023/06/15 03:20:43;;;;;;;;;38.67;33.33;;;;;;;;5059436;28;46392;-74
2023/06/15 03:23:10;;;;;;;;;36.00;32.67;;;;;;;;5059946;28;45248;-74
2023/06/15 03:25:35;;;;;;;;;37.33;32.67;;;;;;;;5059810;28;45220;-74
2023/06/15 03:28:01;;;;;;;;;35.33;31.67;;;;;;;;5059667;28;45220;-74
2023/06/15 03:30:27;;;;;;;;;35.67;32.67;;;;;;;;5059403;28;45244;-74
2023/06/15 03:32:53;;;;;;;;;37.67;32.67;;;;;;;;5059667;28;45323;-74
2023/06/15 03:35:18;;;;;;;;;35.00;31.00;;;;;;;;5059460;28;45504;-74
2023/06/15 03:37:43;;;;;;;;;39.67;31.67;;;;;;;;5059192;28;45497;-74
2023/06/15 03:40:09;;;;;;;;;37.33;33.00;;;;;;;;5059255;28;45996;-74
2023/06/15 03:42:34;;;;;;;;;36.00;32.00;;;;;;;;5059473;28;45141;-74
2023/06/15 03:44:59;;;;;;;;;33.33;30.00;;;;;;;;5059668;28;45327;-74
2023/06/15 03:47:25;;;;;;;;;37.00;32.00;;;;;;;;5059558;28;45240;-74
2023/06/15 03:49:50;;;;;;;;;38.67;33.00;;;;;;;;5059136;28;46103;-74
2023/06/15 03:52:15;;;;;;;;;35.67;32.00;;;;;;;;5059417;28;45285;-74
2023/06/15 03:54:41;;;;;;;;;39.00;33.00;;;;;;;;5059419;28;45344;-74
2023/06/15 03:57:06;;;;;;;;;36.67;32.00;;;;;;;;5059214;28;45378;-74
2023/06/15 03:59:31;;;;;;;;;32.00;29.67;;;;;;;;5059351;28;45865;-74
2023/06/15 04:01:57;;;;;;;;;37.67;33.33;;;;;;;;5059330;28;45402;-74
2023/06/15 04:04:22;;;;;;;;;35.33;32.33;;;;;;;;5059285;28;45249;-74
2023/06/15 04:06:47;;;;;;;;;35.33;32.33;;;;;;;;5062369;28;45236;-74
2023/06/15 04:09:14;;;;;;;;;40.33;33.67;;;;;;;;5062714;28;45949;-74
2023/06/15 04:11:39;;;;;;;;;39.00;33.67;;;;;;;;5062874;28;45334;-74
2023/06/15 04:14:05;;;;;;;;;35.00;32.00;;;;;;;;5062635;28;45556;-74
2023/06/15 04:16:30;;;;;;;;;38.00;33.67;;;;;;;;5062837;28;45369;-74
2023/06/15 04:18:55;;;;;;;;;33.00;30.67;;;;;;;;5062372;28;46052;-74
2023/06/15 04:21:21;;;;;;;;;32.00;30.00;;;;;;;;5062611;28;45310;-74
2023/06/15 04:23:46;;;;;;;;;35.00;32.00;;;;;;;;5062845;28;45204;-74
2023/06/15 04:26:13;;;;;;;;;32.00;30.33;;;;;;;;5062684;28;45203;-74
2023/06/15 04:28:38;;;;;;;;;31.33;30.00;;;;;;;;5062514;28;45283;-74
2023/06/15 04:31:08;;;;;;;;;35.67;30.67;;;;;;;;5062258;28;45232;-74
2023/06/15 04:33:33;;;;;;;;;32.67;30.00;;;;;;;;5061327;28;45323;-74
2023/06/15 04:36:01;;;;;;;;;37.33;32.33;;;;;;;;5061994;28;45259;-74
2023/06/15 04:38:26;;;;;;;;;36.33;32.33;;;;;;;;5062101;28;45923;-74
2023/06/15 04:40:52;;;;;;;;;34.33;30.00;;;;;;;;5062157;28;45385;-74
2023/06/15 04:43:18;;;;;;;;;33.67;30.33;;;;;;;;5062529;28;45299;-74
2023/06/15 04:45:43;;;;;;;;;35.00;31.67;;;;;;;;5062123;28;45303;-74
2023/06/15 04:48:09;;;;;;;;;36.33;31.33;;;;;;;;5062107;28;45315;-74
2023/06/15 04:50:35;;;;;;;;;32.67;30.00;;;;;;;;5061807;28;45217;-74
2023/06/15 04:53:00;;;;;;;;;36.00;32.00;;;;;;;;5062368;28;45382;-74
2023/06/15 04:55:25;;;;;;;;;40.67;34.33;;;;;;;;5062149;28;45323;-74
2023/06/15 04:57:51;;;;;;;;;34.67;31.67;;;;;;;;5061866;28;46676;-76
2023/06/15 05:00:16;;;;;;;;;36.33;32.33;;;;;;;;5057298;28;45328;-74
2023/06/15 05:02:41;;;;;;;;;37.00;32.33;;;;;;;;5050686;28;45331;-75
2023/06/15 05:05:07;;;;;;;;;40.67;33.33;;;;;;;;5050250;28;45370;-74
2023/06/15 05:07:32;;;;;;;;;35.33;31.33;;;;;;;;5042017;28;46278;-74
2023/06/15 05:09:57;;;;;;;;;40.67;33.33;;;;;;;;5041713;28;45369;-73
2023/06/15 05:12:22;;;;;;;;;35.00;32.33;;;;;;;;5042223;28;45433;-74
2023/06/15 05:14:48;;;;;;;;;38.00;33.67;;;;;;;;5040967;28;45342;-73
2023/06/15 05:17:13;;;;;;;;;34.67;31.33;;;;;;;;5047299;28;46365;-74
2023/06/15 05:19:38;;;;;;;;;36.00;33.00;;;;;;;;5056266;28;45499;-74
2023/06/15 05:22:04;;;;;;;;;34.67;32.00;;;;;;;;5044669;28;45318;-73
2023/06/15 05:24:29;;;;;;;;;36.33;32.67;;;;;;;;5041208;28;45300;-74
2023/06/15 05:26:56;;;;;;;;;37.33;33.67;;;;;;;;5041421;28;45384;-75
2023/06/15 05:29:21;;;;;;;;;34.33;30.00;;;;;;;;5049171;28;45237;-75
2023/06/15 05:31:46;;;;;;;;;27.67;26.67;;;;;;;;5061165;28;45398;-75
2023/06/15 05:34:11;;;;;;;;;33.00;30.33;;;;;;;;5060050;28;45443;-75
2023/06/15 05:36:37;;;;;;;;;36.00;33.00;;;;;;;;5059664;28;46098;-74
2023/06/15 05:39:03;;;;;;;;;27.00;25.67;;;;;;;;5059108;28;45361;-75
2023/06/15 05:41:28;;;;;;;;;32.00;30.00;;;;;;;;5060260;28;45338;-74
2023/06/15 05:43:54;;;;;;;;;29.00;28.00;;;;;;;;5060093;28;45366;-74
2023/06/15 05:46:19;;;;;;;;;30.00;27.67;;;;;;;;5059845;28;45415;-74
2023/06/15 05:48:44;;;;;;;;;28.33;27.67;;;;;;;;5061006;28;45256;-74
2023/06/15 05:51:10;;;;;;;;;45.00;36.67;;;;;;;;5061223;28;45366;-74
2023/06/15 05:53:35;;;;;;;;;46.00;38.33;;;;;;;;5061108;28;45421;-74
2023/06/15 05:56:01;;;;;;;;;48.67;38.67;;;;;;;;5061038;28;46684;-74
2023/06/15 05:58:26;;;;;;;;;49.33;40.67;;;;;;;;5061042;28;47226;-74
2023/06/15 06:00:51;;;;;;;;;39.67;33.33;;;;;;;;5061163;28;45322;-74
2023/06/15 06:03:16;;;;;;;;;39.33;33.00;;;;;;;;5060261;28;45272;-75
2023/06/15 06:05:42;;;;;;;;;29.67;27.67;;;;;;;;5059861;28;45499;-75
2023/06/15 06:08:07;;;;;;;;;23.00;22.00;;;;;;;;5061150;28;45257;-74
2023/06/15 06:10:32;;;;;;;;;23.00;22.33;;;;;;;;5061348;28;45302;-74
2023/06/15 06:12:58;;;;;;;;;19.00;19.00;;;;;;;;5060746;28;45291;-73
2023/06/15 06:15:23;;;;;;;;;19.67;19.67;;;;;;;;5060837;28;45322;-74
2023/06/15 06:17:48;;;;;;;;;22.00;22.00;;;;;;;;5060677;28;45362;-73
2023/06/15 06:20:14;;;;;;;;;19.33;19.33;;;;;;;;5060595;28;45565;-73
2023/06/15 06:22:40;;;;;;;;;22.33;21.67;;;;;;;;5060226;28;45329;-73
2023/06/15 06:25:05;;;;;;;;;32.67;30.33;;;;;;;;5059606;28;45435;-73
2023/06/15 06:27:30;;;;;;;;;48.67;40.00;;;;;;;;5059542;28;45216;-73
2023/06/15 06:29:58;;;;;;;;;24.33;23.67;;;;;;;;5060365;28;45617;-73
2023/06/15 06:32:23;;;;;;;;;31.00;29.67;;;;;;;;5060716;28;45287;-73
2023/06/15 06:34:48;;;;;;;;;20.33;20.33;;;;;;;;5060147;28;46119;-73
2023/06/15 06:37:13;;;;;;;;;41.00;34.67;;;;;;;;5059834;28;45318;-72
2023/06/15 06:39:38;;;;;;;;;64.00;51.50;;;;;;;;5059178;28;45367;-73
2023/06/15 06:42:04;;;;;;;;;27.67;26.00;;;;;;;;5058953;28;45551;-73
2023/06/15 06:44:29;;;;;;;;;24.00;22.67;;;;;;;;5060183;28;45561;-72
2023/06/15 06:46:56;;;;;;;;;19.00;18.00;;;;;;;;5042153;28;45335;-72
2023/06/15 06:49:21;;;;;;;;;17.00;17.00;;;;;;;;5040101;28;45402;-72
2023/06/15 06:51:46;;;;;;;;;49.33;39.67;;;;;;;;5039880;28;45481;-73
2023/06/15 06:54:11;;;;;;;;;27.33;26.33;;;;;;;;5051818;28;45455;-72
2023/06/15 06:56:36;;;;;;;;;18.00;18.00;;;;;;;;5059954;28;45275;-73
2023/06/15 06:59:02;;;;;;;;;20.00;18.00;;;;;;;;5060351;28;45507;-73
2023/06/15 07:01:27;;;;;;;;;17.00;17.00;;;;;;;;5060108;28;45278;-72
2023/06/15 07:03:52;;;;;;;;;27.00;26.00;;;;;;;;5059727;28;45314;-73
2023/06/15 07:06:17;;;;;;;;;47.67;40.33;;;;;;;;5059880;28;45291;-73
2023/06/15 07:08:43;;;;;;;;;34.00;29.67;;;;;;;;5058687;28;45536;-72
2023/06/15 07:11:08;;;;;;;;;34.00;29.33;;;;;;;;5060044;28;45305;-73
2023/06/15 07:13:33;;;;;;;;;28.67;27.67;;;;;;;;5059285;28;45609;-73
2023/06/15 07:15:58;;;;;;;;;25.67;25.67;;;;;;;;5050368;28;46386;-72
2023/06/15 07:18:25;;;;;;;;;19.00;19.00;;;;;;;;5046965;28;45324;-72
2023/06/15 07:20:53;;;;;;;;;19.67;19.67;;;;;;;;5045852;28;45347;-72
2023/06/15 07:23:22;;;;;;;;;22.00;21.00;;;;;;;;5057814;28;45298;-71
2023/06/15 07:25:47;;;;;;;;;20.33;19.67;;;;;;;;5059717;28;45343;-72
2023/06/15 07:28:12;;;;;;;;;25.00;24.00;;;;;;;;5059749;28;45301;-71
2023/06/15 07:30:38;;;;;;;;;52.67;42.00;;;;;;;;5059326;28;45405;-72
2023/06/15 07:33:03;;;;;;;;;45.33;38.67;;;;;;;;5059604;28;46197;-72
2023/06/15 07:35:28;;;;;;;;;25.67;24.00;;;;;;;;5059183;28;45330;-72
2023/06/15 07:37:53;;;;;;;;;26.33;25.67;;;;;;;;5059392;28;45414;-71
2023/06/15 07:40:19;;;;;;;;;25.67;23.00;;;;;;;;5058947;28;45493;-71
2023/06/15 07:42:44;;;;;;;;;23.67;23.67;;;;;;;;5059543;28;45229;-71
2023/06/15 07:45:10;;;;;;;;;25.33;25.00;;;;;;;;5059598;28;45295;-72
2023/06/15 07:47:35;;;;;;;;;26.00;24.00;;;;;;;;5059619;28;45318;-72
2023/06/15 07:50:00;;;;;;;;;26.00;26.00;;;;;;;;5058992;28;45272;-72
2023/06/15 07:52:25;;;;;;;;;27.67;26.67;;;;;;;;5059211;28;45275;-71
2023/06/15 07:54:50;;;;;;;;;27.00;26.33;;;;;;;;5059433;28;45208;-71
2023/06/15 07:57:16;;;;;;;;;31.00;26.00;;;;;;;;5059221;28;45254;-71
2023/06/15 07:59:41;;;;;;;;;27.33;26.67;;;;;;;;5059367;28;45366;-72
2023/06/15 08:02:06;;;;;;;;;36.67;32.33;;;;;;;;5056560;28;45233;-72
2023/06/15 08:04:31;;;;;;;;;38.33;32.67;;;;;;;;5038888;28;45239;-71
2023/06/15 08:06:56;;;;;;;;;26.00;22.00;;;;;;;;5039155;28;45415;-72
2023/06/15 08:09:22;;;;;;;;;23.33;23.33;;;;;;;;5038321;28;45352;-72
2023/06/15 08:11:49;;;;;;;;;24.00;22.67;;;;;;;;5039003;28;46060;-71
2023/06/15 08:14:14;;;;;;;;;22.33;20.33;;;;;;;;5038816;28;45378;-71
2023/06/15 08:16:39;;;;;;;;;18.00;18.00;;;;;;;;5039045;28;45299;-72
2023/06/15 08:19:05;;;;;;;;;18.67;18.67;;;;;;;;5038604;28;45474;-71
2023/06/15 08:21:32;;;;;;;;;17.00;17.00;;;;;;;;5044845;28;45972;-71
2023/06/15 08:23:57;;;;;;;;;15.33;15.33;;;;;;;;5057828;28;45334;-72
2023/06/15 08:26:23;;;;;;;;;17.33;17.33;;;;;;;;5058581;28;45505;-72
2023/06/15 08:28:48;;;;;;;;;17.00;15.67;;;;;;;;5058509;28;45350;-71
2023/06/15 08:31:13;;;;;;;;;16.00;16.00;;;;;;;;5058402;28;45346;-72
2023/06/15 08:33:38;;;;;;;;;17.00;17.00;;;;;;;;5058287;28;45341;-72
2023/06/15 08:36:04;;;;;;;;;17.67;17.67;;;;;;;;5058810;28;45341;-72
2023/06/15 08:38:29;;;;;;;;;17.33;17.33;;;;;;;;5058463;28;45255;-72
2023/06/15 08:40:54;;;;;;;;;19.33;19.33;;;;;;;;5058652;28;46272;-72
2023/06/15 08:43:20;;;;;;;;;16.67;16.67;;;;;;;;5058849;28;45302;-73
2023/06/15 08:45:47;;;;;;;;;18.67;18.67;;;;;;;;5058035;28;45291;-73
2023/06/15 08:48:15;;;;;;;;;16.33;16.00;;;;;;;;5058016;28;45293;-72
2023/06/15 08:50:40;;;;;;;;;20.67;19.67;;;;;;;;5058065;28;46417;-72
2023/06/15 08:53:06;;;;;;;;;20.67;20.00;;;;;;;;5062014;28;45386;-72
2023/06/15 08:55:32;;;;;;;;;15.00;15.00;;;;;;;;5062250;28;45529;-72
2023/06/15 08:57:57;;;;;;;;;19.00;17.00;;;;;;;;5061949;28;45448;-72
2023/06/15 09:00:22;;;;;;;;;16.67;16.67;;;;;;;;5061920;28;45981;-72
2023/06/15 09:02:48;;;;;;;;;15.67;15.67;;;;;;;;5061833;28;45401;-71
2023/06/15 09:05:13;;;;;;;;;16.33;16.33;;;;;;;;5061920;28;45290;-72
2023/06/15 09:07:39;;;;;;;;;14.33;13.67;;;;;;;;5061845;28;45292;-72
2023/06/15 09:10:10;;;;;;;;;18.67;17.67;;;;;;;;5061649;28;46374;-72
2023/06/15 09:12:40;;;;;;;;;18.00;17.00;;;;;;;;5061974;28;45358;-72
2023/06/15 09:15:07;;;;;;;;;49.00;40.00;;;;;;;;5061876;28;45242;-71
2023/06/15 09:17:35;;;;;;;;;69.50;60.00;;;;;;;;5061502;28;45406;-71
2023/06/15 09:20:00;;;;;;;;;43.00;35.00;;;;;;;;5060905;28;45627;-72
2023/06/15 09:22:26;;;;;;;;;30.33;28.33;;;;;;;;5061491;28;45291;-72
2023/06/15 09:24:51;;;;;;;;;38.67;31.33;;;;;;;;5061915;28;45338;-72
2023/06/15 09:27:17;;;;;;;;;44.67;36.67;;;;;;;;5061317;28;45323;-72
2023/06/15 09:30:05;;;;;;;;;56.67;46.67;;;;;;;;5061228;28;45509;-71
2023/06/15 09:32:30;;;;;;;;;20.67;20.67;;;;;;;;5061593;28;45261;-71
2023/06/15 09:34:59;;;;;;;;;16.00;15.00;;;;;;;;5061573;28;45274;-71
2023/06/15 09:37:29;;;;;;;;;15.33;14.33;;;;;;;;5060744;28;45532;-71
2023/06/15 09:39:55;;;;;;;;;13.00;13.00;;;;;;;;5061298;28;45522;-72
2023/06/15 09:42:25;;;;;;;;;10.67;10.67;;;;;;;;5061168;28;45469;-71
2023/06/15 09:44:54;;;;;;;;;15.00;14.67;;;;;;;;5061476;28;45331;-72
2023/06/15 09:47:20;;;;;;;;;18.00;18.00;;;;;;;;5060719;28;45350;-72
2023/06/15 09:49:48;;;;;;;;;15.00;15.00;;;;;;;;5059575;28;46037;-72
2023/06/15 09:52:13;;;;;;;;;22.00;20.33;;;;;;;;5058821;28;45401;-71
2023/06/15 09:54:38;;;;;;;;;14.67;14.67;;;;;;;;5049036;28;45438;-72
2023/06/15 09:57:04;;;;;;;;;16.00;15.33;;;;;;;;5047644;28;45594;-74
2023/06/15 09:59:30;;;;;;;;;18.00;18.00;;;;;;;;5051769;28;46163;-73
2023/06/15 10:01:55;;;;;;;;;20.33;19.00;;;;;;;;5050330;28;45379;-76
2023/06/15 10:04:22;;;;;;;;;16.00;15.33;;;;;;;;5051720;28;45294;-75
2023/06/15 10:06:50;;;;;;;;;18.00;16.67;;;;;;;;5060827;28;45338;-76
2023/06/15 10:09:19;;;;;;;;;170.33;157.33;;;;;;;;5062597;28;45354;-75
2023/06/15 10:11:45;;;;;;;;;47.00;37.67;;;;;;;;5062279;28;45287;-75
2023/06/15 10:14:31;;;;;;;;;55.00;43.00;;;;;;;;5061866;28;45379;-76
2023/06/15 10:16:59;;;;;;;;;24.00;24.00;;;;;;;;5061424;28;45441;-76
2023/06/15 10:19:25;;;;;;;;;12.00;12.00;;;;;;;;5041541;28;45414;-77
2023/06/15 10:21:51;;;;;;;;;13.00;12.00;;;;;;;;5054458;28;46032;-77
2023/06/15 10:24:17;;;;;;;;;20.67;20.67;;;;;;;;5062135;28;45166;-76
2023/06/15 10:26:43;;;;;;;;;17.33;17.00;;;;;;;;5062791;28;45516;-76
2023/06/15 10:29:12;;;;;;;;;15.00;15.00;;;;;;;;5061932;28;45294;-76
2023/06/15 10:31:49;;;;;;;;;14.67;14.00;;;;;;;;5061609;28;45263;-78
2023/06/15 10:34:31;;;;;;;;;16.00;15.67;;;;;;;;5061487;28;45343;-76
2023/06/15 10:37:05;;;;;;;;;16.67;15.00;;;;;;;;5065187;28;45444;-79
2023/06/15 10:39:43;;;;;;;;;15.00;15.00;;;;;;;;5064946;28;45389;-75
2023/06/15 10:42:08;;;;;;;;;21.67;21.67;;;;;;;;5064011;28;45355;-76
2023/06/15 10:44:34;;;;;;;;;17.33;16.67;;;;;;;;5063536;28;45322;-77
2023/06/15 10:47:08;;;;;;;;;15.00;15.00;;;;;;;;5060225;28;45643;-76
2023/06/15 10:49:34;;;;;;;;;15.67;15.33;;;;;;;;5055901;28;46306;-78
2023/06/15 10:52:01;;;;;;;;;11.00;11.00;;;;;;;;5050335;28;45355;-78
2023/06/15 10:54:27;;;;;;;;;15.67;15.67;;;;;;;;5060108;28;45351;-78
2023/06/15 10:56:53;;;;;;;;;12.67;12.33;;;;;;;;5059139;28;45672;-78
2023/06/15 10:59:38;;;;;;;;;12.67;12.67;;;;;;;;5059147;28;46175;-75
2023/06/15 11:02:23;;;;;;;;;15.00;15.00;;;;;;;;5054654;28;45173;-76
2023/06/15 11:04:52;;;;;;;;;20.33;20.00;;;;;;;;5060144;28;45409;-76
2023/06/15 11:07:26;;;;;;;;;15.33;15.33;;;;;;;;5059770;28;45389;-76
2023/06/15 11:09:52;;;;;;;;;14.67;14.67;;;;;;;;5060364;28;46087;-75
2023/06/15 11:12:36;;;;;;;;;14.67;14.67;;;;;;;;5060064;28;45315;-77
2023/06/15 11:15:02;;;;;;;;;14.00;14.00;;;;;;;;5058777;28;45393;-76
2023/06/15 11:17:28;;;;;;;;;18.00;17.00;;;;;;;;5058723;28;45455;-76
2023/06/15 11:19:53;;;;;;;;;15.00;14.67;;;;;;;;5059346;28;45266;-76
2023/06/15 11:22:25;;;;;;;;;14.67;14.67;;;;;;;;5059754;28;45289;-75
2023/06/15 11:24:52;;;;;;;;;13.33;13.33;;;;;;;;5060176;28;45508;-75
2023/06/15 11:27:19;;;;;;;;;14.00;14.00;;;;;;;;5059791;28;45526;-76
2023/06/15 11:29:44;;;;;;;;;12.00;12.00;;;;;;;;5058029;28;46744;-74
2023/06/15 11:32:10;;;;;;;;;15.00;15.00;;;;;;;;5059664;28;45306;-75
2023/06/15 11:34:36;;;;;;;;;15.00;15.00;;;;;;;;5058647;28;45296;-73
2023/06/15 11:37:01;;;;;;;;;14.67;14.67;;;;;;;;5059048;28;45349;-73
2023/06/15 11:39:27;;;;;;;;;14.00;14.00;;;;;;;;5059422;28;46221;-73
2023/06/15 11:41:56;;;;;;;;;14.33;14.00;;;;;;;;5059338;28;45288;-73
2023/06/15 11:44:21;;;;;;;;;17.67;17.67;;;;;;;;5059740;28;45333;-73
2023/06/15 11:46:56;;;;;;;;;14.00;14.00;;;;;;;;5059314;28;45318;-73
2023/06/15 11:49:21;;;;;;;;;31.33;28.33;;;;;;;;5059109;28;46498;-72
2023/06/15 11:51:47;;;;;;;;;24.67;24.00;;;;;;;;5059277;28;45276;-73
2023/06/15 11:54:13;;;;;;;;;14.33;13.67;;;;;;;;5058495;28;45314;-74
2023/06/15 11:56:46;;;;;;;;;17.00;16.33;;;;;;;;5047000;28;45558;-72
2023/06/15 11:59:12;;;;;;;;;15.67;15.67;;;;;;;;5038442;28;45570;-72
2023/06/15 12:01:37;;;;;;;;;16.33;16.33;;;;;;;;5036848;28;45371;-74
2023/06/15 12:04:10;;;;;;;;;15.33;15.33;;;;;;;;5042421;28;45294;-74
2023/06/15 12:06:35;;;;;;;;;15.33;15.33;;;;;;;;5058435;28;45230;-74
2023/06/15 12:09:00;;;;;;;;;18.67;15.67;;;;;;;;5058271;28;45315;-73
2023/06/15 12:11:26;;;;;;;;;15.67;14.67;;;;;;;;5059206;28;45429;-73
2023/06/15 12:13:51;;;;;;;;;13.33;13.00;;;;;;;;5059215;28;45384;-74
2023/06/15 12:16:17;;;;;;;;;56.75;45.50;;;;;;;;5058927;28;45458;-74
2023/06/15 12:18:42;;;;;;;;;19.67;19.67;;;;;;;;5058859;28;45936;-73
2023/06/15 12:21:07;;;;;;;;;18.00;16.33;;;;;;;;5059054;28;45252;-73
2023/06/15 12:23:33;;;;;;;;;15.33;15.33;;;;;;;;5058988;28;45291;-74
2023/06/15 12:26:01;;;;;;;;;16.67;16.67;;;;;;;;5059239;28;45496;-73
2023/06/15 12:28:27;;;;;;;;;17.33;16.33;;;;;;;;5062260;28;45738;-74
2023/06/15 12:30:56;;;;;;;;;17.67;17.67;;;;;;;;5062479;28;45322;-73
2023/06/15 12:33:25;;;;;;;;;18.00;18.00;;;;;;;;5062411;28;45382;-74
2023/06/15 12:35:51;;;;;;;;;18.00;17.67;;;;;;;;5062249;28;45516;-73
2023/06/15 12:38:16;;;;;;;;;18.67;18.67;;;;;;;;5061805;28;46472;-74
2023/06/15 12:40:43;;;;;;;;;18.33;17.33;;;;;;;;5062211;28;45330;-73
2023/06/15 12:43:09;;;;;;;;;17.00;16.67;;;;;;;;5062486;28;45334;-73
2023/06/15 12:45:34;;;;;;;;;16.00;16.00;;;;;;;;5062206;28;45284;-73
2023/06/15 12:48:00;;;;;;;;;14.67;14.00;;;;;;;;5058799;28;47982;-75
2023/06/15 12:50:28;;;;;;;;;17.33;17.33;;;;;;;;5047906;28;45342;-75
2023/06/15 12:52:55;;;;;;;;;15.67;14.67;;;;;;;;5051210;28;45440;-74
2023/06/15 12:55:20;;;;;;;;;15.67;15.67;;;;;;;;5052271;28;45438;-75
2023/06/15 12:57:45;;;;;;;;;19.67;19.33;;;;;;;;5048176;28;46277;-74
2023/06/15 13:00:11;;;;;;;;;25.00;24.67;;;;;;;;5039488;28;45398;-75
2023/06/15 13:02:36;;;;;;;;;18.00;16.67;;;;;;;;5041554;28;45513;-74
2023/06/15 13:05:04;;;;;;;;;19.00;19.00;;;;;;;;5041571;28;45494;-74
2023/06/15 13:07:31;;;;;;;;;20.33;19.33;;;;;;;;5041292;28;45347;-74
2023/06/15 13:09:56;;;;;;;;;15.00;15.00;;;;;;;;5041424;28;45355;-75
2023/06/15 13:12:22;;;;;;;;;20.00;18.33;;;;;;;;5041761;28;45370;-76
2023/06/15 13:14:47;;;;;;;;;16.33;15.33;;;;;;;;5056493;28;45471;-75
2023/06/15 13:17:12;;;;;;;;;18.33;18.33;;;;;;;;5056168;28;45627;-74
2023/06/15 13:19:37;;;;;;;;;17.67;17.67;;;;;;;;5046466;28;45452;-74
2023/06/15 13:22:02;;;;;;;;;15.67;15.67;;;;;;;;5051706;28;45390;-75
2023/06/15 13:24:28;;;;;;;;;21.00;20.33;;;;;;;;5051854;28;45373;-75
2023/06/15 13:26:53;;;;;;;;;17.67;17.67;;;;;;;;5051063;28;45273;-75
2023/06/15 13:29:18;;;;;;;;;17.33;16.67;;;;;;;;5052399;28;45334;-75
2023/06/15 13:31:43;;;;;;;;;17.00;17.00;;;;;;;;5049542;28;45370;-74
2023/06/15 13:34:08;;;;;;;;;15.33;15.33;;;;;;;;5049783;28;45380;-76
2023/06/15 13:36:34;;;;;;;;;15.33;15.33;;;;;;;;5050481;28;46446;-74
2023/06/15 13:38:59;;;;;;;;;13.67;13.67;;;;;;;;5049078;28;46301;-74
2023/06/15 13:41:25;;;;;;;;;12.00;12.00;;;;;;;;5051563;28;45399;-73
2023/06/15 13:43:52;;;;;;;;;18.00;18.00;;;;;;;;5051341;28;45385;-74
2023/06/15 13:46:17;;;;;;;;;15.33;15.33;;;;;;;;5059802;28;46024;-74
2023/06/15 13:48:42;;;;;;;;;16.00;16.00;;;;;;;;5060514;28;45296;-73
2023/06/15 13:51:07;;;;;;;;;15.33;15.33;;;;;;;;5061023;28;45359;-73
2023/06/15 13:53:32;;;;;;;;;16.33;16.33;;;;;;;;5060564;28;45315;-73
2023/06/15 13:55:58;;;;;;;;;14.67;14.33;;;;;;;;5060881;28;45279;-74
2023/06/15 13:58:23;;;;;;;;;16.33;16.00;;;;;;;;5057549;28;45322;-76
2023/06/15 14:00:49;;;;;;;;;15.67;15.67;;;;;;;;5050302;28;45810;-74
2023/06/15 14:03:15;;;;;;;;;15.33;15.00;;;;;;;;5048397;28;45621;-73
2023/06/15 14:05:41;;;;;;;;;14.00;12.67;;;;;;;;5041223;28;45283;-73
2023/06/15 14:08:06;;;;;;;;;16.67;16.33;;;;;;;;5040986;28;45370;-75
2023/06/15 14:10:31;;;;;;;;;16.00;16.00;;;;;;;;5041072;28;45335;-74